sensor_id;sensor_type;location;lat;lon;timestamp;P1;durP1;ratioP1;P2;durP2;ratioP2
66741;SDS011;53654;54.152;19.432;2023-05-16T00:01:06;14.90;;;13.90;;
66741;SDS011;53654;54.152;19.432;2023-05-16T00:03:35;15.60;;;14.50;;
66741;SDS011;53654;54.152;19.432;2023-05-16T00:06:05;16.50;;;15.20;;
66741;SDS011;53654;54.152;19.432;2023-05-16T00:08:33;17.40;;;16.10;;
66741;SDS011;53654;54.152;19.432;2023-05-16T00:11:01;16.60;;;15.40;;
66741;SDS011;53654;54.152;19.432;2023-05-16T00:13:30;17.80;;;16.50;;
66741;SDS011;53654;54.152;19.432;2023-05-16T00:15:58;17.40;;;16.10;;
66741;SDS011;53654;54.152;19.432;2023-05-16T00:18:29;17.40;;;16.10;;
66741;SDS011;53654;54.152;19.432;2023-05-16T00:20:57;16.70;;;15.50;;
66741;SDS011;53654;54.152;19.432;2023-05-16T00:23:26;17.50;;;16.30;;
66741;SDS011;53654;54.152;19.432;2023-05-16T00:25:54;18.00;;;16.70;;
66741;SDS011;53654;54.152;19.432;2023-05-16T00:28:22;18.90;;;17.50;;
66741;SDS011;53654;54.152;19.432;2023-05-16T00:30:50;18.10;;;16.80;;
66741;SDS011;53654;54.152;19.432;2023-05-16T00:33:18;18.20;;;16.90;;
66741;SDS011;53654;54.152;19.432;2023-05-16T00:35:47;18.20;;;16.90;;
66741;SDS011;53654;54.152;19.432;2023-05-16T00:38:17;18.20;;;16.70;;
66741;SDS011;53654;54.152;19.432;2023-05-16T00:40:45;17.50;;;16.20;;
66741;SDS011;53654;54.152;19.432;2023-05-16T00:43:13;17.70;;;16.40;;
66741;SDS011;53654;54.152;19.432;2023-05-16T00:45:41;17.80;;;16.50;;
66741;SDS011;53654;54.152;19.432;2023-05-16T00:48:11;17.50;;;16.20;;
66741;SDS011;53654;54.152;19.432;2023-05-16T00:50:40;17.50;;;16.20;;
66741;SDS011;53654;54.152;19.432;2023-05-16T00:53:09;17.90;;;16.60;;
66741;SDS011;53654;54.152;19.432;2023-05-16T00:55:37;17.60;;;16.40;;
66741;SDS011;53654;54.152;19.432;2023-05-16T00:58:07;18.40;;;17.00;;
66741;SDS011;53654;54.152;19.432;2023-05-16T01:00:36;18.10;;;16.80;;
66741;SDS011;53654;54.152;19.432;2023-05-16T01:03:04;19.20;;;17.70;;
66741;SDS011;53654;54.152;19.432;2023-05-16T01:05:32;18.80;;;17.50;;
66741;SDS011;53654;54.152;19.432;2023-05-16T01:08:01;19.20;;;17.70;;
66741;SDS011;53654;54.152;19.432;2023-05-16T01:10:43;18.80;;;17.40;;
66741;SDS011;53654;54.152;19.432;2023-05-16T01:13:45;19.70;;;18.30;;
66741;SDS011;53654;54.152;19.432;2023-05-16T01:16:29;20.00;;;18.50;;
66741;SDS011;53654;54.152;19.432;2023-05-16T01:22:09;21.70;;;20.00;;
66741;SDS011;53654;54.152;19.432;2023-05-16T01:24:44;21.60;;;19.90;;
66741;SDS011;53654;54.152;19.432;2023-05-16T01:27:33;20.00;;;18.50;;
66741;SDS011;53654;54.152;19.432;2023-05-16T01:30:12;20.40;;;18.90;;
66741;SDS011;53654;54.152;19.432;2023-05-16T01:32:45;20.70;;;19.00;;
66741;SDS011;53654;54.152;19.432;2023-05-16T01:35:14;18.90;;;17.50;;
66741;SDS011;53654;54.152;19.432;2023-05-16T01:40:29;17.40;;;16.10;;
66741;SDS011;53654;54.152;19.432;2023-05-16T01:43:10;15.50;;;14.40;;
66741;SDS011;53654;54.152;19.432;2023-05-16T01:45:46;14.80;;;13.70;;
66741;SDS011;53654;54.152;19.432;2023-05-16T01:48:22;14.50;;;13.50;;
66741;SDS011;53654;54.152;19.432;2023-05-16T01:50:57;12.50;;;11.70;;
66741;SDS011;53654;54.152;19.432;2023-05-16T01:53:32;12.10;;;11.30;;
66741;SDS011;53654;54.152;19.432;2023-05-16T01:56:08;11.80;;;11.00;;
66741;SDS011;53654;54.152;19.432;2023-05-16T01:58:42;11.30;;;10.60;;
66741;SDS011;53654;54.152;19.432;2023-05-16T02:01:13;11.70;;;10.90;;
66741;SDS011;53654;54.152;19.432;2023-05-16T02:03:42;12.20;;;11.30;;
66741;SDS011;53654;54.152;19.432;2023-05-16T02:06:10;12.20;;;11.30;;
66741;SDS011;53654;54.152;19.432;2023-05-16T02:08:38;12.30;;;11.50;;
66741;SDS011;53654;54.152;19.432;2023-05-16T02:11:06;13.10;;;12.20;;
66741;SDS011;53654;54.152;19.432;2023-05-16T02:13:34;13.80;;;12.80;;
66741;SDS011;53654;54.152;19.432;2023-05-16T02:16:03;14.40;;;13.40;;
66741;SDS011;53654;54.152;19.432;2023-05-16T02:18:31;14.70;;;13.70;;
66741;SDS011;53654;54.152;19.432;2023-05-16T02:21:00;14.90;;;13.80;;
66741;SDS011;53654;54.152;19.432;2023-05-16T02:23:28;14.50;;;13.40;;
66741;SDS011;53654;54.152;19.432;2023-05-16T02:25:56;15.10;;;14.10;;
66741;SDS011;53654;54.152;19.432;2023-05-16T02:28:24;14.80;;;13.80;;
66741;SDS011;53654;54.152;19.432;2023-05-16T02:30:58;14.90;;;13.90;;
66741;SDS011;53654;54.152;19.432;2023-05-16T02:33:27;15.40;;;14.40;;
66741;SDS011;53654;54.152;19.432;2023-05-16T02:35:55;15.40;;;14.30;;
66741;SDS011;53654;54.152;19.432;2023-05-16T02:38:25;15.20;;;14.20;;
66741;SDS011;53654;54.152;19.432;2023-05-16T02:40:55;15.50;;;14.40;;
66741;SDS011;53654;54.152;19.432;2023-05-16T02:43:23;16.30;;;15.20;;
66741;SDS011;53654;54.152;19.432;2023-05-16T02:45:51;16.30;;;15.20;;
66741;SDS011;53654;54.152;19.432;2023-05-16T02:48:19;16.50;;;15.30;;
66741;SDS011;53654;54.152;19.432;2023-05-16T02:50:47;16.40;;;15.20;;
66741;SDS011;53654;54.152;19.432;2023-05-16T02:53:15;17.30;;;16.10;;
66741;SDS011;53654;54.152;19.432;2023-05-16T02:58:59;16.60;;;15.50;;
66741;SDS011;53654;54.152;19.432;2023-05-16T03:01:27;17.60;;;16.30;;
66741;SDS011;53654;54.152;19.432;2023-05-16T03:03:55;17.20;;;16.00;;
66741;SDS011;53654;54.152;19.432;2023-05-16T03:06:24;17.80;;;16.60;;
66741;SDS011;53654;54.152;19.432;2023-05-16T03:08:52;18.40;;;17.00;;
66741;SDS011;53654;54.152;19.432;2023-05-16T03:11:20;17.80;;;16.50;;
66741;SDS011;53654;54.152;19.432;2023-05-16T03:13:49;17.60;;;16.30;;
66741;SDS011;53654;54.152;19.432;2023-05-16T03:16:17;17.30;;;16.10;;
66741;SDS011;53654;54.152;19.432;2023-05-16T03:18:46;16.40;;;15.30;;
66741;SDS011;53654;54.152;19.432;2023-05-16T03:21:14;16.40;;;15.20;;
66741;SDS011;53654;54.152;19.432;2023-05-16T03:23:44;15.80;;;14.70;;
66741;SDS011;53654;54.152;19.432;2023-05-16T03:26:12;14.90;;;13.80;;
66741;SDS011;53654;54.152;19.432;2023-05-16T03:28:40;14.70;;;13.70;;
66741;SDS011;53654;54.152;19.432;2023-05-16T03:31:08;15.00;;;14.00;;
66741;SDS011;53654;54.152;19.432;2023-05-16T03:33:36;14.30;;;13.40;;
66741;SDS011;53654;54.152;19.432;2023-05-16T03:36:04;14.80;;;13.80;;
66741;SDS011;53654;54.152;19.432;2023-05-16T03:38:33;14.10;;;13.10;;
66741;SDS011;53654;54.152;19.432;2023-05-16T03:41:01;14.20;;;13.20;;
66741;SDS011;53654;54.152;19.432;2023-05-16T03:43:29;15.50;;;14.40;;
66741;SDS011;53654;54.152;19.432;2023-05-16T03:45:59;14.30;;;13.30;;
66741;SDS011;53654;54.152;19.432;2023-05-16T03:48:28;15.20;;;14.10;;
66741;SDS011;53654;54.152;19.432;2023-05-16T03:50:56;14.70;;;13.70;;
66741;SDS011;53654;54.152;19.432;2023-05-16T03:53:24;14.70;;;13.70;;
66741;SDS011;53654;54.152;19.432;2023-05-16T03:55:52;14.40;;;13.40;;
66741;SDS011;53654;54.152;19.432;2023-05-16T03:58:20;13.70;;;12.80;;
66741;SDS011;53654;54.152;19.432;2023-05-16T04:00:48;13.10;;;12.20;;
66741;SDS011;53654;54.152;19.432;2023-05-16T04:03:16;13.60;;;12.70;;
66741;SDS011;53654;54.152;19.432;2023-05-16T04:05:44;13.30;;;12.40;;
66741;SDS011;53654;54.152;19.432;2023-05-16T04:08:12;12.90;;;12.10;;
66741;SDS011;53654;54.152;19.432;2023-05-16T04:10:40;12.50;;;11.70;;
66741;SDS011;53654;54.152;19.432;2023-05-16T04:13:08;12.40;;;11.60;;
66741;SDS011;53654;54.152;19.432;2023-05-16T04:15:37;12.10;;;11.30;;
66741;SDS011;53654;54.152;19.432;2023-05-16T04:18:05;12.30;;;11.50;;
66741;SDS011;53654;54.152;19.432;2023-05-16T04:20:34;12.40;;;11.50;;
66741;SDS011;53654;54.152;19.432;2023-05-16T04:23:03;12.20;;;11.40;;
66741;SDS011;53654;54.152;19.432;2023-05-16T04:25:31;12.50;;;11.70;;
66741;SDS011;53654;54.152;19.432;2023-05-16T04:27:59;12.50;;;11.70;;
66741;SDS011;53654;54.152;19.432;2023-05-16T04:30:27;11.70;;;10.90;;
66741;SDS011;53654;54.152;19.432;2023-05-16T04:32:55;10.90;;;10.20;;
66741;SDS011;53654;54.152;19.432;2023-05-16T04:35:26;10.40;;;9.70;;
66741;SDS011;53654;54.152;19.432;2023-05-16T04:37:55;10.40;;;9.70;;
66741;SDS011;53654;54.152;19.432;2023-05-16T04:40:23;10.20;;;9.50;;
66741;SDS011;53654;54.152;19.432;2023-05-16T04:42:52;10.00;;;9.30;;
66741;SDS011;53654;54.152;19.432;2023-05-16T04:45:21;9.30;;;8.70;;
66741;SDS011;53654;54.152;19.432;2023-05-16T04:47:49;9.40;;;8.70;;
66741;SDS011;53654;54.152;19.432;2023-05-16T04:50:18;8.90;;;8.30;;
66741;SDS011;53654;54.152;19.432;2023-05-16T04:52:46;8.60;;;8.00;;
66741;SDS011;53654;54.152;19.432;2023-05-16T04:55:14;9.10;;;8.50;;
66741;SDS011;53654;54.152;19.432;2023-05-16T04:57:43;8.30;;;7.70;;
66741;SDS011;53654;54.152;19.432;2023-05-16T05:00:11;8.90;;;8.30;;
66741;SDS011;53654;54.152;19.432;2023-05-16T05:02:39;8.90;;;8.10;;
66741;SDS011;53654;54.152;19.432;2023-05-16T05:05:08;7.60;;;7.10;;
66741;SDS011;53654;54.152;19.432;2023-05-16T05:07:36;7.00;;;6.50;;
66741;SDS011;53654;54.152;19.432;2023-05-16T05:10:05;6.60;;;6.10;;
66741;SDS011;53654;54.152;19.432;2023-05-16T05:12:34;6.40;;;5.90;;
66741;SDS011;53654;54.152;19.432;2023-05-16T05:15:03;6.20;;;5.80;;
66741;SDS011;53654;54.152;19.432;2023-05-16T05:17:32;6.40;;;5.90;;
66741;SDS011;53654;54.152;19.432;2023-05-16T05:20:00;5.00;;;4.70;;
66741;SDS011;53654;54.152;19.432;2023-05-16T05:22:29;5.10;;;4.80;;
66741;SDS011;53654;54.152;19.432;2023-05-16T05:24:58;4.70;;;4.40;;
66741;SDS011;53654;54.152;19.432;2023-05-16T05:27:26;4.50;;;4.30;;
66741;SDS011;53654;54.152;19.432;2023-05-16T05:29:54;4.00;;;3.70;;
66741;SDS011;53654;54.152;19.432;2023-05-16T05:32:22;4.30;;;4.10;;
66741;SDS011;53654;54.152;19.432;2023-05-16T05:34:51;4.20;;;4.00;;
66741;SDS011;53654;54.152;19.432;2023-05-16T05:37:19;4.30;;;4.00;;
66741;SDS011;53654;54.152;19.432;2023-05-16T05:39:47;4.30;;;4.00;;
66741;SDS011;53654;54.152;19.432;2023-05-16T05:42:15;4.10;;;3.90;;
66741;SDS011;53654;54.152;19.432;2023-05-16T05:44:43;4.00;;;3.80;;
66741;SDS011;53654;54.152;19.432;2023-05-16T05:47:11;3.80;;;3.50;;
66741;SDS011;53654;54.152;19.432;2023-05-16T05:49:40;4.00;;;3.80;;
66741;SDS011;53654;54.152;19.432;2023-05-16T05:52:08;3.50;;;5.50;;
66741;SDS011;53654;54.152;19.432;2023-05-16T05:54:36;3.70;;;3.50;;
66741;SDS011;53654;54.152;19.432;2023-05-16T05:57:04;4.20;;;3.90;;
66741;SDS011;53654;54.152;19.432;2023-05-16T05:59:32;3.30;;;3.10;;
66741;SDS011;53654;54.152;19.432;2023-05-16T06:02:00;3.10;;;2.90;;
66741;SDS011;53654;54.152;19.432;2023-05-16T06:04:29;2.70;;;2.60;;
66741;SDS011;53654;54.152;19.432;2023-05-16T06:06:57;2.50;;;2.40;;
66741;SDS011;53654;54.152;19.432;2023-05-16T06:09:25;2.60;;;2.40;;
66741;SDS011;53654;54.152;19.432;2023-05-16T06:11:53;2.70;;;2.50;;
66741;SDS011;53654;54.152;19.432;2023-05-16T06:14:22;2.50;;;2.40;;
66741;SDS011;53654;54.152;19.432;2023-05-16T06:16:49;2.40;;;2.30;;
66741;SDS011;53654;54.152;19.432;2023-05-16T06:19:18;2.30;;;2.20;;
66741;SDS011;53654;54.152;19.432;2023-05-16T06:21:46;2.30;;;2.20;;
66741;SDS011;53654;54.152;19.432;2023-05-16T06:24:14;2.60;;;2.40;;
66741;SDS011;53654;54.152;19.432;2023-05-16T06:26:43;2.60;;;2.50;;
66741;SDS011;53654;54.152;19.432;2023-05-16T06:29:16;2.80;;;2.60;;
66741;SDS011;53654;54.152;19.432;2023-05-16T06:31:44;2.70;;;2.60;;
66741;SDS011;53654;54.152;19.432;2023-05-16T06:34:13;2.70;;;2.50;;
66741;SDS011;53654;54.152;19.432;2023-05-16T06:36:42;2.90;;;2.70;;
66741;SDS011;53654;54.152;19.432;2023-05-16T06:39:11;2.40;;;2.30;;
66741;SDS011;53654;54.152;19.432;2023-05-16T06:41:39;2.40;;;2.20;;
66741;SDS011;53654;54.152;19.432;2023-05-16T06:44:11;2.70;;;2.40;;
66741;SDS011;53654;54.152;19.432;2023-05-16T06:46:39;2.70;;;2.50;;
66741;SDS011;53654;54.152;19.432;2023-05-16T06:49:07;2.80;;;2.60;;
66741;SDS011;53654;54.152;19.432;2023-05-16T06:51:35;2.70;;;2.50;;
66741;SDS011;53654;54.152;19.432;2023-05-16T06:54:03;2.90;;;2.80;;
66741;SDS011;53654;54.152;19.432;2023-05-16T06:56:32;2.80;;;2.60;;
66741;SDS011;53654;54.152;19.432;2023-05-16T06:59:00;2.80;;;2.60;;
66741;SDS011;53654;54.152;19.432;2023-05-16T07:01:28;2.70;;;2.60;;
66741;SDS011;53654;54.152;19.432;2023-05-16T07:03:57;2.60;;;2.50;;
66741;SDS011;53654;54.152;19.432;2023-05-16T07:06:25;3.10;;;2.90;;
66741;SDS011;53654;54.152;19.432;2023-05-16T07:08:53;3.20;;;3.00;;
66741;SDS011;53654;54.152;19.432;2023-05-16T07:11:22;2.70;;;2.50;;
66741;SDS011;53654;54.152;19.432;2023-05-16T07:13:50;2.50;;;2.30;;
66741;SDS011;53654;54.152;19.432;2023-05-16T07:16:21;2.50;;;2.30;;
66741;SDS011;53654;54.152;19.432;2023-05-16T07:18:49;2.10;;;2.00;;
66741;SDS011;53654;54.152;19.432;2023-05-16T07:21:18;3.20;;;2.60;;
66741;SDS011;53654;54.152;19.432;2023-05-16T07:23:47;3.00;;;2.60;;
66741;SDS011;53654;54.152;19.432;2023-05-16T07:26:15;3.00;;;2.80;;
66741;SDS011;53654;54.152;19.432;2023-05-16T07:28:43;3.50;;;3.20;;
66741;SDS011;53654;54.152;19.432;2023-05-16T07:31:11;3.60;;;3.20;;
66741;SDS011;53654;54.152;19.432;2023-05-16T07:33:40;2.80;;;2.60;;
66741;SDS011;53654;54.152;19.432;2023-05-16T07:36:09;3.20;;;3.00;;
66741;SDS011;53654;54.152;19.432;2023-05-16T07:38:44;3.10;;;2.90;;
66741;SDS011;53654;54.152;19.432;2023-05-16T07:41:12;3.40;;;3.20;;
66741;SDS011;53654;54.152;19.432;2023-05-16T07:43:40;3.60;;;3.30;;
66741;SDS011;53654;54.152;19.432;2023-05-16T07:46:09;2.80;;;2.60;;
66741;SDS011;53654;54.152;19.432;2023-05-16T07:48:38;2.80;;;2.60;;
66741;SDS011;53654;54.152;19.432;2023-05-16T07:51:06;4.10;;;2.80;;
66741;SDS011;53654;54.152;19.432;2023-05-16T07:53:35;3.10;;;2.90;;
66741;SDS011;53654;54.152;19.432;2023-05-16T07:56:03;3.60;;;3.30;;
66741;SDS011;53654;54.152;19.432;2023-05-16T07:58:32;3.70;;;3.50;;
66741;SDS011;53654;54.152;19.432;2023-05-16T08:01:00;3.40;;;3.10;;
66741;SDS011;53654;54.152;19.432;2023-05-16T08:03:28;3.70;;;3.40;;
66741;SDS011;53654;54.152;19.432;2023-05-16T08:05:57;3.70;;;3.40;;
66741;SDS011;53654;54.152;19.432;2023-05-16T08:08:25;3.10;;;2.90;;
66741;SDS011;53654;54.152;19.432;2023-05-16T08:10:54;3.30;;;3.10;;
66741;SDS011;53654;54.152;19.432;2023-05-16T08:13:23;3.40;;;3.10;;
66741;SDS011;53654;54.152;19.432;2023-05-16T08:15:51;3.50;;;3.20;;
66741;SDS011;53654;54.152;19.432;2023-05-16T08:18:20;3.20;;;3.00;;
66741;SDS011;53654;54.152;19.432;2023-05-16T08:20:49;3.60;;;4.90;;
66741;SDS011;53654;54.152;19.432;2023-05-16T08:23:18;3.60;;;3.00;;
66741;SDS011;53654;54.152;19.432;2023-05-16T08:25:46;3.20;;;2.90;;
66741;SDS011;53654;54.152;19.432;2023-05-16T08:28:14;3.30;;;3.00;;
66741;SDS011;53654;54.152;19.432;2023-05-16T08:30:43;2.40;;;2.20;;
66741;SDS011;53654;54.152;19.432;2023-05-16T08:33:14;2.40;;;2.20;;
66741;SDS011;53654;54.152;19.432;2023-05-16T08:35:43;2.20;;;2.00;;
66741;SDS011;53654;54.152;19.432;2023-05-16T08:38:11;2.10;;;2.00;;
66741;SDS011;53654;54.152;19.432;2023-05-16T08:40:39;2.40;;;2.20;;
66741;SDS011;53654;54.152;19.432;2023-05-16T08:43:09;2.80;;;2.60;;
66741;SDS011;53654;54.152;19.432;2023-05-16T08:45:39;2.30;;;2.10;;
66741;SDS011;53654;54.152;19.432;2023-05-16T08:48:08;1.70;;;1.60;;
66741;SDS011;53654;54.152;19.432;2023-05-16T08:50:38;2.00;;;1.80;;
66741;SDS011;53654;54.152;19.432;2023-05-16T08:53:07;1.90;;;1.80;;
66741;SDS011;53654;54.152;19.432;2023-05-16T08:55:36;1.80;;;1.70;;
66741;SDS011;53654;54.152;19.432;2023-05-16T08:58:05;2.90;;;2.50;;
66741;SDS011;53654;54.152;19.432;2023-05-16T09:00:33;2.50;;;2.30;;
66741;SDS011;53654;54.152;19.432;2023-05-16T09:03:02;2.50;;;2.30;;
66741;SDS011;53654;54.152;19.432;2023-05-16T09:05:31;2.90;;;2.60;;
66741;SDS011;53654;54.152;19.432;2023-05-16T09:08:00;3.30;;;3.10;;
66741;SDS011;53654;54.152;19.432;2023-05-16T09:10:28;4.10;;;3.80;;
66741;SDS011;53654;54.152;19.432;2023-05-16T09:12:56;3.90;;;3.60;;
66741;SDS011;53654;54.152;19.432;2023-05-16T09:15:25;4.00;;;3.70;;
66741;SDS011;53654;54.152;19.432;2023-05-16T09:17:59;3.70;;;3.50;;
66741;SDS011;53654;54.152;19.432;2023-05-16T09:20:29;3.70;;;3.40;;
66741;SDS011;53654;54.152;19.432;2023-05-16T09:22:58;4.40;;;4.00;;
66741;SDS011;53654;54.152;19.432;2023-05-16T09:25:30;3.70;;;3.50;;
66741;SDS011;53654;54.152;19.432;2023-05-16T09:27:59;2.80;;;2.70;;
66741;SDS011;53654;54.152;19.432;2023-05-16T09:30:30;3.40;;;3.20;;
66741;SDS011;53654;54.152;19.432;2023-05-16T09:33:01;3.70;;;3.30;;
66741;SDS011;53654;54.152;19.432;2023-05-16T09:35:30;3.50;;;3.20;;
66741;SDS011;53654;54.152;19.432;2023-05-16T09:38:01;3.50;;;3.30;;
66741;SDS011;53654;54.152;19.432;2023-05-16T09:40:30;3.30;;;3.10;;
66741;SDS011;53654;54.152;19.432;2023-05-16T09:45:30;3.90;;;3.50;;
66741;SDS011;53654;54.152;19.432;2023-05-16T09:48:09;2.20;;;2.10;;
66741;SDS011;53654;54.152;19.432;2023-05-16T09:50:45;2.80;;;2.40;;
66741;SDS011;53654;54.152;19.432;2023-05-16T09:53:16;2.20;;;2.00;;
66741;SDS011;53654;54.152;19.432;2023-05-16T09:55:44;2.10;;;1.90;;
66741;SDS011;53654;54.152;19.432;2023-05-16T09:58:15;2.10;;;1.90;;
66741;SDS011;53654;54.152;19.432;2023-05-16T10:00:45;2.10;;;2.00;;
66741;SDS011;53654;54.152;19.432;2023-05-16T10:03:13;2.30;;;2.20;;
66741;SDS011;53654;54.152;19.432;2023-05-16T10:05:42;2.70;;;2.50;;
66741;SDS011;53654;54.152;19.432;2023-05-16T10:08:11;2.00;;;1.90;;
66741;SDS011;53654;54.152;19.432;2023-05-16T10:10:40;2.10;;;1.60;;
66741;SDS011;53654;54.152;19.432;2023-05-16T10:13:09;1.60;;;1.50;;
66741;SDS011;53654;54.152;19.432;2023-05-16T10:15:39;2.00;;;1.80;;
66741;SDS011;53654;54.152;19.432;2023-05-16T10:18:08;1.80;;;1.70;;
66741;SDS011;53654;54.152;19.432;2023-05-16T10:20:40;1.80;;;1.70;;
66741;SDS011;53654;54.152;19.432;2023-05-16T10:23:16;1.80;;;1.70;;
66741;SDS011;53654;54.152;19.432;2023-05-16T10:25:47;2.00;;;1.90;;
66741;SDS011;53654;54.152;19.432;2023-05-16T10:28:17;2.10;;;1.90;;
66741;SDS011;53654;54.152;19.432;2023-05-16T10:30:46;2.30;;;2.10;;
66741;SDS011;53654;54.152;19.432;2023-05-16T10:33:17;2.00;;;1.90;;
66741;SDS011;53654;54.152;19.432;2023-05-16T10:35:46;1.90;;;1.80;;
66741;SDS011;53654;54.152;19.432;2023-05-16T10:38:16;1.90;;;1.70;;
66741;SDS011;53654;54.152;19.432;2023-05-16T10:40:46;1.80;;;1.70;;
66741;SDS011;53654;54.152;19.432;2023-05-16T10:43:22;1.90;;;1.80;;
66741;SDS011;53654;54.152;19.432;2023-05-16T10:45:54;1.90;;;1.70;;
66741;SDS011;53654;54.152;19.432;2023-05-16T10:48:30;2.00;;;1.80;;
66741;SDS011;53654;54.152;19.432;2023-05-16T10:51:16;1.80;;;1.70;;
66741;SDS011;53654;54.152;19.432;2023-05-16T10:54:05;1.80;;;1.70;;
66741;SDS011;53654;54.152;19.432;2023-05-16T10:56:36;2.30;;;1.90;;
66741;SDS011;53654;54.152;19.432;2023-05-16T10:59:21;1.90;;;1.80;;
66741;SDS011;53654;54.152;19.432;2023-05-16T11:01:52;2.40;;;2.10;;
66741;SDS011;53654;54.152;19.432;2023-05-16T11:04:20;2.80;;;2.60;;
66741;SDS011;53654;54.152;19.432;2023-05-16T11:06:50;2.20;;;2.00;;
66741;SDS011;53654;54.152;19.432;2023-05-16T11:09:23;2.70;;;2.40;;
66741;SDS011;53654;54.152;19.432;2023-05-16T11:11:55;2.40;;;2.20;;
66741;SDS011;53654;54.152;19.432;2023-05-16T11:25:01;2.20;;;2.10;;
66741;SDS011;53654;54.152;19.432;2023-05-16T11:32:46;2.10;;;1.90;;
66741;SDS011;53654;54.152;19.432;2023-05-16T11:35:16;3.00;;;2.40;;
66741;SDS011;53654;54.152;19.432;2023-05-16T11:37:46;2.50;;;2.30;;
66741;SDS011;53654;54.152;19.432;2023-05-16T11:40:15;2.60;;;2.40;;
66741;SDS011;53654;54.152;19.432;2023-05-16T11:42:45;2.50;;;2.30;;
66741;SDS011;53654;54.152;19.432;2023-05-16T11:45:18;3.10;;;2.90;;
66741;SDS011;53654;54.152;19.432;2023-05-16T11:47:49;3.70;;;2.30;;
66741;SDS011;53654;54.152;19.432;2023-05-16T11:50:18;2.50;;;2.30;;
66741;SDS011;53654;54.152;19.432;2023-05-16T11:52:49;2.30;;;2.20;;
66741;SDS011;53654;54.152;19.432;2023-05-16T11:55:25;2.90;;;2.60;;
66741;SDS011;53654;54.152;19.432;2023-05-16T11:58:08;2.70;;;2.50;;
66741;SDS011;53654;54.152;19.432;2023-05-16T12:00:46;2.70;;;2.50;;
66741;SDS011;53654;54.152;19.432;2023-05-16T12:03:16;3.20;;;2.90;;
66741;SDS011;53654;54.152;19.432;2023-05-16T12:05:49;3.00;;;2.80;;
66741;SDS011;53654;54.152;19.432;2023-05-16T12:08:20;3.00;;;2.80;;
66741;SDS011;53654;54.152;19.432;2023-05-16T12:10:49;3.40;;;3.10;;
66741;SDS011;53654;54.152;19.432;2023-05-16T12:13:19;3.50;;;3.20;;
66741;SDS011;53654;54.152;19.432;2023-05-16T12:15:50;4.40;;;4.00;;
66741;SDS011;53654;54.152;19.432;2023-05-16T12:18:22;3.90;;;3.60;;
66741;SDS011;53654;54.152;19.432;2023-05-16T12:20:54;3.60;;;3.30;;
66741;SDS011;53654;54.152;19.432;2023-05-16T12:23:22;4.20;;;3.90;;
66741;SDS011;53654;54.152;19.432;2023-05-16T12:25:53;4.30;;;3.60;;
66741;SDS011;53654;54.152;19.432;2023-05-16T12:28:23;4.10;;;3.80;;
66741;SDS011;53654;54.152;19.432;2023-05-16T12:30:51;4.70;;;3.50;;
66741;SDS011;53654;54.152;19.432;2023-05-16T12:33:20;3.60;;;3.30;;
66741;SDS011;53654;54.152;19.432;2023-05-16T12:35:49;4.30;;;3.90;;
66741;SDS011;53654;54.152;19.432;2023-05-16T12:38:20;4.60;;;4.20;;
66741;SDS011;53654;54.152;19.432;2023-05-16T12:40:48;4.90;;;4.50;;
66741;SDS011;53654;54.152;19.432;2023-05-16T12:43:20;5.00;;;4.60;;
66741;SDS011;53654;54.152;19.432;2023-05-16T12:45:50;5.20;;;4.80;;
66741;SDS011;53654;54.152;19.432;2023-05-16T12:48:20;5.40;;;4.90;;
66741;SDS011;53654;54.152;19.432;2023-05-16T12:50:50;5.70;;;5.20;;
66741;SDS011;53654;54.152;19.432;2023-05-16T12:53:18;6.10;;;5.50;;
66741;SDS011;53654;54.152;19.432;2023-05-16T12:55:46;5.90;;;5.40;;
66741;SDS011;53654;54.152;19.432;2023-05-16T12:58:14;6.00;;;5.50;;
66741;SDS011;53654;54.152;19.432;2023-05-16T13:00:44;6.00;;;5.50;;
66741;SDS011;53654;54.152;19.432;2023-05-16T13:03:12;6.00;;;5.50;;
66741;SDS011;53654;54.152;19.432;2023-05-16T13:05:40;5.80;;;5.30;;
66741;SDS011;53654;54.152;19.432;2023-05-16T13:08:09;6.00;;;5.50;;
66741;SDS011;53654;54.152;19.432;2023-05-16T13:10:37;5.70;;;5.30;;
66741;SDS011;53654;54.152;19.432;2023-05-16T13:13:05;6.20;;;5.70;;
66741;SDS011;53654;54.152;19.432;2023-05-16T13:15:33;6.20;;;5.60;;
66741;SDS011;53654;54.152;19.432;2023-05-16T13:18:01;6.10;;;5.60;;
66741;SDS011;53654;54.152;19.432;2023-05-16T13:20:30;6.60;;;6.00;;
66741;SDS011;53654;54.152;19.432;2023-05-16T13:22:58;5.90;;;5.50;;
66741;SDS011;53654;54.152;19.432;2023-05-16T13:25:26;6.50;;;6.00;;
66741;SDS011;53654;54.152;19.432;2023-05-16T13:27:54;7.80;;;7.20;;
66741;SDS011;53654;54.152;19.432;2023-05-16T13:30:22;6.50;;;6.00;;
66741;SDS011;53654;54.152;19.432;2023-05-16T13:32:51;6.90;;;6.30;;
66741;SDS011;53654;54.152;19.432;2023-05-16T13:35:20;6.40;;;5.90;;
66741;SDS011;53654;54.152;19.432;2023-05-16T13:37:48;7.00;;;6.50;;
66741;SDS011;53654;54.152;19.432;2023-05-16T13:40:16;6.50;;;6.00;;
66741;SDS011;53654;54.152;19.432;2023-05-16T13:42:44;8.20;;;7.50;;
66741;SDS011;53654;54.152;19.432;2023-05-16T13:45:13;7.10;;;6.50;;
66741;SDS011;53654;54.152;19.432;2023-05-16T13:47:41;6.90;;;6.30;;
66741;SDS011;53654;54.152;19.432;2023-05-16T13:50:11;7.10;;;6.50;;
66741;SDS011;53654;54.152;19.432;2023-05-16T13:52:39;7.00;;;6.50;;
66741;SDS011;53654;54.152;19.432;2023-05-16T13:55:08;7.40;;;6.70;;
66741;SDS011;53654;54.152;19.432;2023-05-16T13:57:36;7.40;;;6.70;;
66741;SDS011;53654;54.152;19.432;2023-05-16T14:00:05;7.30;;;6.60;;
66741;SDS011;53654;54.152;19.432;2023-05-16T14:02:42;7.60;;;7.10;;
66741;SDS011;53654;54.152;19.432;2023-05-16T14:05:10;7.30;;;6.80;;
66741;SDS011;53654;54.152;19.432;2023-05-16T14:07:38;7.70;;;7.10;;
66741;SDS011;53654;54.152;19.432;2023-05-16T14:10:07;7.80;;;7.10;;
66741;SDS011;53654;54.152;19.432;2023-05-16T14:12:35;7.70;;;7.10;;
66741;SDS011;53654;54.152;19.432;2023-05-16T14:15:05;8.20;;;7.50;;
66741;SDS011;53654;54.152;19.432;2023-05-16T14:17:33;8.70;;;8.00;;
66741;SDS011;53654;54.152;19.432;2023-05-16T14:20:02;8.40;;;7.70;;
66741;SDS011;53654;54.152;19.432;2023-05-16T14:22:36;8.50;;;7.80;;
66741;SDS011;53654;54.152;19.432;2023-05-16T14:25:05;8.60;;;8.00;;
66741;SDS011;53654;54.152;19.432;2023-05-16T14:27:33;9.00;;;8.30;;
66741;SDS011;53654;54.152;19.432;2023-05-16T14:30:05;8.60;;;7.90;;
66741;SDS011;53654;54.152;19.432;2023-05-16T14:32:34;8.30;;;7.60;;
66741;SDS011;53654;54.152;19.432;2023-05-16T14:35:03;8.60;;;7.90;;
66741;SDS011;53654;54.152;19.432;2023-05-16T14:37:32;8.20;;;7.60;;
66741;SDS011;53654;54.152;19.432;2023-05-16T14:40:00;7.70;;;7.10;;
66741;SDS011;53654;54.152;19.432;2023-05-16T14:42:29;7.60;;;7.00;;
66741;SDS011;53654;54.152;19.432;2023-05-16T14:44:58;7.40;;;6.80;;
66741;SDS011;53654;54.152;19.432;2023-05-16T14:47:26;7.90;;;7.20;;
66741;SDS011;53654;54.152;19.432;2023-05-16T14:49:55;8.80;;;8.00;;
66741;SDS011;53654;54.152;19.432;2023-05-16T14:52:23;8.70;;;7.90;;
66741;SDS011;53654;54.152;19.432;2023-05-16T14:54:51;8.90;;;8.20;;
66741;SDS011;53654;54.152;19.432;2023-05-16T14:57:20;8.90;;;8.30;;
66741;SDS011;53654;54.152;19.432;2023-05-16T14:59:48;7.90;;;7.20;;
66741;SDS011;53654;54.152;19.432;2023-05-16T15:02:17;8.20;;;7.50;;
66741;SDS011;53654;54.152;19.432;2023-05-16T15:04:46;7.80;;;7.20;;
66741;SDS011;53654;54.152;19.432;2023-05-16T15:07:14;7.50;;;6.80;;